sensor_id;sensor_type;location;lat;lon;timestamp;P1;durP1;ratioP1;P2;durP2;ratioP2
70780;SDS011;59514;48.810;2.134;2023-02-28T10:30:02;6.93;;;6.22;;
70780;SDS011;59514;48.810;2.134;2023-02-28T10:34:18;4.80;;;4.30;;
70780;SDS011;59514;48.810;2.134;2023-02-28T10:36:44;6.03;;;4.72;;
70780;SDS011;59514;48.810;2.134;2023-02-28T10:40:11;5.38;;;4.88;;
70780;SDS011;59514;48.810;2.134;2023-02-28T10:42:04;5.38;;;4.82;;
70780;SDS011;59514;48.810;2.134;2023-02-28T10:44:42;7.93;;;5.28;;
70780;SDS011;59514;48.810;2.134;2023-02-28T10:47:13;5.68;;;5.15;;
70780;SDS011;59514;48.810;2.134;2023-02-28T10:49:48;5.28;;;4.78;;
70780;SDS011;59514;48.810;2.134;2023-02-28T11:06:46;5.65;;;5.05;;
70780;SDS011;59514;48.810;2.134;2023-02-28T11:11:50;4.47;;;4.07;;
70780;SDS011;59514;48.810;2.134;2023-02-28T11:14:22;4.47;;;4.07;;
70780;SDS011;59514;48.810;2.134;2023-02-28T11:16:57;4.65;;;3.83;;
70780;SDS011;59514;48.810;2.134;2023-02-28T11:19:40;5.20;;;3.90;;
70780;SDS011;59514;48.810;2.134;2023-02-28T11:22:10;4.18;;;3.78;;
70780;SDS011;59514;48.810;2.134;2023-02-28T11:24:44;3.85;;;3.20;;
70780;SDS011;59514;48.810;2.134;2023-02-28T11:27:40;2.90;;;2.70;;
70780;SDS011;59514;48.810;2.134;2023-02-28T11:30:59;2.90;;;2.70;;
70780;SDS011;59514;48.810;2.134;2023-02-28T11:33:18;2.90;;;2.70;;
70780;SDS011;59514;48.810;2.134;2023-02-28T11:35:48;3.50;;;3.20;;
70780;SDS011;59514;48.810;2.134;2023-02-28T11:38:14;3.08;;;2.50;;
70780;SDS011;59514;48.810;2.134;2023-02-28T11:40:49;3.92;;;3.13;;
70780;SDS011;59514;48.810;2.134;2023-02-28T11:51:47;3.30;;;2.92;;
70780;SDS011;59514;48.810;2.134;2023-02-28T11:54:28;3.85;;;2.80;;
70780;SDS011;59514;48.810;2.134;2023-02-28T11:57:12;3.00;;;2.80;;
70780;SDS011;59514;48.810;2.134;2023-02-28T12:13:24;5.22;;;2.97;;
70780;SDS011;59514;48.810;2.134;2023-02-28T12:26:34;3.00;;;2.80;;
70780;SDS011;59514;48.810;2.134;2023-02-28T12:31:42;3.00;;;2.78;;
70780;SDS011;59514;48.810;2.134;2023-02-28T12:34:25;4.88;;;3.17;;
70780;SDS011;59514;48.810;2.134;2023-02-28T12:36:56;3.50;;;3.13;;
70780;SDS011;59514;48.810;2.134;2023-02-28T12:39:31;3.05;;;2.85;;
70780;SDS011;59514;48.810;2.134;2023-02-28T12:42:03;4.85;;;3.30;;
70780;SDS011;59514;48.810;2.134;2023-02-28T12:44:35;3.55;;;3.13;;
70780;SDS011;59514;48.810;2.134;2023-02-28T12:47:09;4.07;;;3.28;;
70780;SDS011;59514;48.810;2.134;2023-02-28T12:49:42;3.05;;;2.75;;
70780;SDS011;59514;48.810;2.134;2023-02-28T12:52:47;3.20;;;2.92;;
70780;SDS011;59514;48.810;2.134;2023-02-28T12:55:22;3.10;;;2.75;;
70780;SDS011;59514;48.810;2.134;2023-02-28T13:00:19;3.17;;;2.88;;
70780;SDS011;59514;48.810;2.134;2023-02-28T13:05:41;3.55;;;3.10;;
70780;SDS011;59514;48.810;2.134;2023-02-28T13:11:05;3.00;;;2.72;;
70780;SDS011;59514;48.810;2.134;2023-02-28T13:13:31;3.88;;;3.17;;
70780;SDS011;59514;48.810;2.134;2023-02-28T13:16:06;3.28;;;2.90;;
70780;SDS011;59514;48.810;2.134;2023-02-28T13:18:41;3.05;;;2.85;;
70780;SDS011;59514;48.810;2.134;2023-02-28T13:21:09;3.70;;;3.40;;
70780;SDS011;59514;48.810;2.134;2023-02-28T13:26:21;3.03;;;2.83;;
70780;SDS011;59514;48.810;2.134;2023-02-28T13:31:23;3.42;;;3.22;;
70780;SDS011;59514;48.810;2.134;2023-02-28T13:36:27;3.20;;;2.90;;
70780;SDS011;59514;48.810;2.134;2023-02-28T13:46:32;3.25;;;2.95;;
70780;SDS011;59514;48.810;2.134;2023-02-28T13:51:48;3.03;;;2.83;;
70780;SDS011;59514;48.810;2.134;2023-02-28T13:56:49;4.22;;;2.90;;
70780;SDS011;59514;48.810;2.134;2023-02-28T13:59:28;3.13;;;2.60;;
70780;SDS011;59514;48.810;2.134;2023-02-28T14:05:05;3.28;;;3.08;;
70780;SDS011;59514;48.810;2.134;2023-02-28T14:07:48;3.35;;;3.15;;
70780;SDS011;59514;48.810;2.134;2023-02-28T14:13:00;3.30;;;3.00;;
70780;SDS011;59514;48.810;2.134;2023-02-28T14:15:30;3.85;;;3.13;;
70780;SDS011;59514;48.810;2.134;2023-02-28T14:18:04;2.85;;;2.65;;
70780;SDS011;59514;48.810;2.134;2023-02-28T14:20:39;2.78;;;2.58;;
70780;SDS011;59514;48.810;2.134;2023-02-28T14:23:25;2.67;;;2.45;;
70780;SDS011;59514;48.810;2.134;2023-02-28T14:31:44;3.45;;;3.10;;
70780;SDS011;59514;48.810;2.134;2023-02-28T14:34:26;3.90;;;2.58;;
70780;SDS011;59514;48.810;2.134;2023-02-28T14:36:54;3.13;;;2.88;;
70780;SDS011;59514;48.810;2.134;2023-02-28T14:39:25;4.65;;;2.88;;
70780;SDS011;59514;48.810;2.134;2023-02-28T14:41:52;2.85;;;2.65;;
70780;SDS011;59514;48.810;2.134;2023-02-28T14:44:22;2.55;;;2.38;;
70780;SDS011;59514;48.810;2.134;2023-02-28T14:47:02;2.45;;;2.25;;
70780;SDS011;59514;48.810;2.134;2023-02-28T14:49:32;2.50;;;2.30;;
70780;SDS011;59514;48.810;2.134;2023-02-28T14:52:23;2.60;;;2.40;;
70780;SDS011;59514;48.810;2.134;2023-02-28T14:59:03;2.90;;;2.70;;
70780;SDS011;59514;48.810;2.134;2023-02-28T15:01:30;3.35;;;3.05;;
70780;SDS011;59514;48.810;2.134;2023-02-28T15:04:04;2.67;;;2.45;;
70780;SDS011;59514;48.810;2.134;2023-02-28T15:06:31;2.92;;;2.72;;
70780;SDS011;59514;48.810;2.134;2023-02-28T15:09:06;3.00;;;2.80;;
70780;SDS011;59514;48.810;2.134;2023-02-28T15:22:13;2.80;;;2.60;;
70780;SDS011;59514;48.810;2.134;2023-02-28T15:27:15;2.42;;;2.30;;
70780;SDS011;59514;48.810;2.134;2023-02-28T15:29:49;3.00;;;2.80;;
70780;SDS011;59514;48.810;2.134;2023-02-28T15:50:03;2.95;;;2.65;;
70780;SDS011;59514;48.810;2.134;2023-02-28T15:52:40;3.47;;;3.03;;
70780;SDS011;59514;48.810;2.134;2023-02-28T15:55:10;3.00;;;2.80;;
70780;SDS011;59514;48.810;2.134;2023-02-28T15:57:41;3.10;;;2.90;;
70780;SDS011;59514;48.810;2.134;2023-02-28T16:00:09;3.55;;;3.20;;
70780;SDS011;59514;48.810;2.134;2023-02-28T16:02:39;3.33;;;3.03;;
